createdAt,value
2023-11-19T00:00:53.413Z,96148.50
2023-11-19T00:03:56.473Z,96147.38
2023-11-19T00:07:04.006Z,96140.00
2023-11-19T00:10:08.272Z,96139.56
2023-11-19T00:13:11.587Z,96133.16
2023-11-19T00:16:13.456Z,96124.38
2023-11-19T00:19:15.106Z,96115.97
2023-11-19T00:22:16.702Z,96124.41
2023-11-19T00:25:19.870Z,96119.09
2023-11-19T00:28:21.547Z,96123.00
2023-11-19T00:31:23.278Z,96113.94
2023-11-19T00:34:24.919Z,96107.38
2023-11-19T00:37:26.557Z,96105.41
2023-11-19T00:40:28.296Z,96098.00
2023-11-19T00:43:31.256Z,96089.78
2023-11-19T00:46:33.920Z,96079.69
2023-11-19T00:49:36.236Z,96062.81
2023-11-19T00:52:38.676Z,96056.38
2023-11-19T00:58:46.331Z,96054.84
2023-11-19T01:01:52.596Z,96045.91
2023-11-19T01:04:54.242Z,96042.81
2023-11-19T01:07:56.594Z,96054.81
2023-11-19T01:10:58.673Z,96064.31
2023-11-19T01:14:00.772Z,96061.94
2023-11-19T01:17:03.289Z,96052.88
2023-11-19T01:20:07.514Z,96056.75
2023-11-19T01:23:10.009Z,96066.09
2023-11-19T01:26:11.910Z,96058.84
2023-11-19T01:29:17.546Z,96054.63
2023-11-19T01:32:20.236Z,96038.84
2023-11-19T01:35:26.106Z,96044.97
2023-11-19T01:38:29.817Z,96039.53
2023-11-19T01:41:37.112Z,96043.13
2023-11-19T01:44:39.529Z,96021.56
2023-11-19T01:47:41.967Z,96027.44
2023-11-19T01:50:43.661Z,96020.69
2023-11-19T01:53:46.023Z,96007.13
2023-11-19T01:56:48.150Z,96004.16
2023-11-19T01:59:53.649Z,96009.03
2023-11-19T02:02:56.121Z,95992.66
2023-11-19T02:05:58.965Z,95994.16
2023-11-19T02:09:00.625Z,95982.13
2023-11-19T02:12:02.923Z,95992.44
2023-11-19T02:15:04.910Z,95991.31
2023-11-19T02:18:23.661Z,95974.06
2023-11-19T02:21:25.655Z,95991.41
2023-11-19T02:24:32.213Z,95976.31
2023-11-19T02:27:57.028Z,95968.31
2023-11-19T02:30:58.996Z,95980.88
2023-11-19T02:34:03.485Z,95963.75
2023-11-19T02:37:06.060Z,95955.78
2023-11-19T02:40:11.003Z,95952.97
2023-11-19T02:43:14.485Z,95950.69
2023-11-19T02:46:18.592Z,95944.38
2023-11-19T02:49:20.681Z,95939.75
2023-11-19T02:52:22.513Z,95931.78
2023-11-19T02:55:25.143Z,95929.13
2023-11-19T02:58:29.225Z,95948.28
2023-11-19T03:01:32.301Z,95941.13
2023-11-19T03:04:35.033Z,95933.00
2023-11-19T03:07:37.791Z,95932.84
2023-11-19T03:10:40.054Z,95936.19
2023-11-19T03:13:42.360Z,95927.38
2023-11-19T03:16:47.664Z,95936.06
2023-11-19T03:19:50.540Z,95921.06
2023-11-19T03:22:53.918Z,95927.75
2023-11-19T03:25:55.554Z,95929.28
2023-11-19T03:28:58.394Z,95933.75
2023-11-19T03:32:01.073Z,95931.63
2023-11-19T03:35:05.423Z,95935.81
2023-11-19T03:38:07.031Z,95932.16
2023-11-19T03:41:13.691Z,95933.66
2023-11-19T03:44:17.753Z,95929.88
2023-11-19T03:47:20.133Z,95927.06
2023-11-19T03:50:22.288Z,95929.41
2023-11-19T03:53:25.470Z,95926.72
2023-11-19T03:56:28.386Z,95919.59
2023-11-19T03:59:30.421Z,95934.13
2023-11-19T04:02:32.548Z,95936.63
2023-11-19T04:05:34.622Z,95946.97
2023-11-19T04:08:36.923Z,95945.97
2023-11-19T04:11:38.572Z,95940.50
2023-11-19T04:14:41.686Z,95951.69
2023-11-19T04:17:43.446Z,95949.72
2023-11-19T04:20:45.502Z,95945.91
2023-11-19T04:23:47.145Z,95948.41
2023-11-19T04:26:49.984Z,95946.56
2023-11-19T04:29:52.014Z,95940.97
2023-11-19T04:32:53.642Z,95938.16
2023-11-19T04:35:55.233Z,95939.00
2023-11-19T04:38:56.853Z,95939.66
2023-11-19T04:41:58.861Z,95946.81
2023-11-19T04:45:01.630Z,95946.38
2023-11-19T04:48:03.268Z,95938.38
2023-11-19T04:51:07.862Z,95938.06
2023-11-19T04:54:11.364Z,95951.38
2023-11-19T04:57:13.410Z,95942.38
2023-11-19T05:00:17.281Z,95939.88
2023-11-19T05:03:20.361Z,95940.41
2023-11-19T05:06:22.504Z,95942.09
2023-11-19T05:09:24.545Z,95948.06
2023-11-19T05:12:26.185Z,95945.25
2023-11-19T05:15:27.792Z,95946.94
2023-11-19T05:18:29.854Z,95935.16
2023-11-19T05:21:31.903Z,95941.47
2023-11-19T05:24:33.567Z,95954.78
2023-11-19T05:27:35.371Z,95953.09
2023-11-19T05:30:37.003Z,95937.47
2023-11-19T05:33:39.176Z,95943.50
2023-11-19T05:36:41.041Z,95952.47
2023-11-19T05:39:43.088Z,95961.31
2023-11-19T05:42:44.782Z,95941.81
2023-11-19T05:45:46.345Z,95939.84
2023-11-19T05:48:49.328Z,95928.34
2023-11-19T05:51:52.416Z,95948.53
2023-11-19T05:54:54.014Z,95953.84
2023-11-19T05:57:58.325Z,95944.69
2023-11-19T06:01:03.586Z,95945.38
2023-11-19T06:04:05.909Z,95945.38
2023-11-19T06:07:07.589Z,95953.06
2023-11-19T06:10:11.279Z,95957.56
2023-11-19T06:13:16.661Z,95944.91
2023-11-19T06:16:18.903Z,95953.72
2023-11-19T06:19:20.764Z,95939.91
2023-11-19T06:22:22.773Z,95955.25
2023-11-19T06:25:25.155Z,95940.94
2023-11-19T06:28:26.884Z,95954.97
2023-11-19T06:31:29.004Z,95959.25
2023-11-19T06:34:31.130Z,95963.47
2023-11-19T06:37:33.266Z,95959.13
2023-11-19T06:40:39.010Z,95950.13
2023-11-19T06:43:42.869Z,95963.81
2023-11-19T06:46:45.342Z,95962.81
2023-11-19T06:49:46.968Z,95962.66
2023-11-19T06:52:48.833Z,95974.69
2023-11-19T06:55:50.879Z,95973.69
2023-11-19T06:58:53.414Z,95975.06
2023-11-19T07:01:55.464Z,95974.06
2023-11-19T07:04:58.027Z,95977.25
2023-11-19T07:08:00.217Z,95981.44
2023-11-19T07:11:02.341Z,95978.63
2023-11-19T07:14:04.439Z,95980.94
2023-11-19T07:17:07.229Z,95986.97
2023-11-19T07:20:09.754Z,95981.28
2023-11-19T07:23:11.449Z,96002.31
2023-11-19T07:26:13.715Z,96005.69
2023-11-19T07:29:28.817Z,96009.84
2023-11-19T07:32:31.312Z,96012.19
2023-11-19T07:35:33.450Z,96011.06
2023-11-19T07:38:35.686Z,96022.22
2023-11-19T07:41:37.320Z,96018.41
2023-11-19T07:44:41.089Z,96024.25
2023-11-19T07:47:45.816Z,96019.47
2023-11-19T07:50:47.431Z,96016.44
2023-11-19T07:53:50.596Z,96016.81
2023-11-19T07:56:52.443Z,96010.31
2023-11-19T07:59:54.972Z,96017.53
2023-11-19T08:02:56.830Z,96019.03
2023-11-19T08:05:59.022Z,96016.22
2023-11-19T08:09:01.054Z,96006.56
2023-11-19T08:12:02.788Z,96010.56
2023-11-19T08:15:05.917Z,96014.59
2023-11-19T08:18:08.634Z,96017.63
2023-11-19T08:21:10.353Z,96018.78
2023-11-19T08:24:11.949Z,96021.31
2023-11-19T08:27:13.993Z,96024.31
2023-11-19T08:30:15.814Z,96018.47
2023-11-19T08:33:18.112Z,96020.16
2023-11-19T08:36:20.435Z,96028.69
2023-11-19T08:39:22.535Z,96017.00
2023-11-19T08:42:24.283Z,96018.69
2023-11-19T08:45:26.948Z,96022.69
2023-11-19T08:48:28.661Z,96012.84
2023-11-19T08:51:30.287Z,96015.72
2023-11-19T08:54:32.327Z,96016.56
2023-11-19T08:57:34.043Z,96010.91
2023-11-19T09:00:35.607Z,96018.56
2023-11-19T09:03:38.132Z,96026.41
2023-11-19T09:06:41.459Z,96012.72
2023-11-19T09:09:43.084Z,96010.88
2023-11-19T09:12:44.700Z,96011.88
2023-11-19T09:15:46.305Z,96010.75
2023-11-19T09:18:47.941Z,96021.94
2023-11-19T09:21:51.068Z,96017.25
2023-11-19T09:24:52.706Z,96013.41
2023-11-19T09:27:54.312Z,96016.94
2023-11-19T09:30:56.380Z,96022.44
2023-11-19T09:33:58.460Z,96013.06
2023-11-19T09:37:00.544Z,96007.09
2023-11-19T09:40:02.156Z,96002.91
2023-11-19T09:43:05.380Z,95995.38
2023-11-19T09:46:11.681Z,95994.53
2023-11-19T09:49:14.326Z,95998.88
2023-11-19T09:52:16.945Z,96000.03
2023-11-19T09:55:18.719Z,95986.16
2023-11-19T09:58:20.469Z,95991.66
2023-11-19T10:01:26.616Z,95984.94
2023-11-19T10:04:33.805Z,95994.31
2023-11-19T10:07:35.835Z,95990.13
2023-11-19T10:10:38.190Z,95992.44
2023-11-19T10:13:41.013Z,95991.94
2023-11-19T10:16:43.839Z,95986.22
2023-11-19T10:19:45.435Z,95989.25
2023-11-19T10:22:47.100Z,95995.75
2023-11-19T10:25:54.252Z,95985.50
2023-11-19T10:28:56.980Z,95983.81
2023-11-19T10:32:23.633Z,95983.47
2023-11-19T10:35:21.222Z,96000.69
2023-11-19T10:38:24.215Z,95994.16
2023-11-19T10:41:34.098Z,95980.94
2023-11-19T10:44:37.562Z,95993.63
2023-11-19T10:47:41.959Z,95980.59
2023-11-19T10:50:46.980Z,95983.41
2023-11-19T10:53:51.904Z,95980.91
2023-11-19T10:57:02.550Z,95977.22
2023-11-19T11:00:11.820Z,95977.38
2023-11-19T11:03:20.574Z,95977.72
2023-11-19T11:06:23.786Z,95976.88
2023-11-19T11:09:28.401Z,95973.03
2023-11-19T11:12:36.426Z,95958.25
2023-11-19T11:15:38.746Z,95963.44
2023-11-19T11:18:40.840Z,95970.16
2023-11-19T11:21:46.713Z,95947.84
2023-11-19T11:25:03.416Z,95950.63
2023-11-19T11:28:15.893Z,95947.25
2023-11-19T11:31:35.398Z,95941.34
2023-11-19T11:35:02.317Z,95936.75
2023-11-19T11:38:10.760Z,95940.09
2023-11-19T11:41:26.516Z,95945.09
2023-11-19T11:45:06.183Z,95941.22
2023-11-19T11:48:21.086Z,95942.53
2023-11-19T11:51:46.747Z,95951.06
2023-11-19T11:54:48.735Z,95951.72
2023-11-19T11:57:51.054Z,95957.09
2023-11-19T12:00:53.322Z,95940.63
2023-11-19T12:03:57.477Z,95940.91
2023-11-19T12:07:13.679Z,95941.56
2023-11-19T12:10:17.417Z,95932.16
2023-11-19T12:13:23.130Z,95946.19
2023-11-19T12:16:25.092Z,95929.09
2023-11-19T12:19:28.291Z,95932.44
2023-11-19T12:22:30.356Z,95932.28
2023-11-19T12:25:35.441Z,95925.91
2023-11-19T12:28:37.488Z,95932.84
2023-11-19T12:31:39.648Z,95925.63
2023-11-19T12:34:41.622Z,95915.56
2023-11-19T12:37:48.329Z,95918.22
2023-11-19T12:41:06.873Z,95909.84
2023-11-19T12:44:13.268Z,95913.31
2023-11-19T12:47:16.440Z,95911.47
2023-11-19T12:50:20.017Z,95909.63
2023-11-19T12:53:23.071Z,95899.91
2023-11-19T12:56:25.800Z,95876.16
2023-11-19T12:59:28.361Z,95891.69
2023-11-19T13:02:51.182Z,95889.84
2023-11-19T13:06:02.862Z,95878.47
2023-11-19T13:09:04.795Z,95885.69
2023-11-19T13:12:24.587Z,95888.38
2023-11-19T13:15:27.602Z,95882.47
2023-11-19T13:18:44.884Z,95884.75
2023-11-19T13:21:48.289Z,95880.03
2023-11-19T13:24:50.193Z,95865.28
2023-11-19T13:27:51.907Z,95864.03
2023-11-19T13:30:55.044Z,95856.56
2023-11-19T13:33:57.854Z,95858.31
2023-11-19T13:36:59.525Z,95849.88
2023-11-19T13:40:02.015Z,95838.13
2023-11-19T13:43:03.684Z,95841.31
2023-11-19T13:46:06.102Z,95830.19
2023-11-19T13:49:08.052Z,95830.66
2023-11-19T13:52:10.635Z,95823.78
2023-11-19T13:55:12.991Z,95814.91
2023-11-19T13:58:15.078Z,95818.16
2023-11-19T14:01:17.189Z,95818.34
2023-11-19T14:04:18.988Z,95829.06
2023-11-19T14:07:20.774Z,95823.44
2023-11-19T14:10:22.468Z,95832.97
2023-11-19T14:13:24.987Z,95837.31
2023-11-19T14:16:30.301Z,95822.03
2023-11-19T14:19:31.972Z,95822.63
2023-11-19T14:22:33.561Z,95821.13
2023-11-19T14:25:35.591Z,95828.53
2023-11-19T14:28:55.450Z,95828.91
2023-11-19T14:32:00.368Z,95829.09
2023-11-19T14:35:02.170Z,95824.09
2023-11-19T14:38:06.540Z,95831.50
2023-11-19T14:41:08.728Z,95825.47
2023-11-19T14:44:10.944Z,95831.22
2023-11-19T14:47:12.659Z,95831.59
2023-11-19T14:50:14.800Z,95826.97
2023-11-19T14:53:16.934Z,95833.50
2023-11-19T14:56:19.496Z,95825.03
2023-11-19T14:59:21.638Z,95825.75
2023-11-19T15:02:23.285Z,95820.75
2023-11-19T15:05:24.955Z,95817.41
2023-11-19T15:08:26.649Z,95809.28
2023-11-19T15:11:28.668Z,95815.03
2023-11-19T15:14:31.729Z,95813.53
2023-11-19T15:17:33.348Z,95810.75
2023-11-19T15:20:35.050Z,95823.31
2023-11-19T15:23:38.130Z,95826.34
2023-11-19T15:26:39.865Z,95826.06
2023-11-19T15:29:43.082Z,95842.88
2023-11-19T15:32:44.857Z,95831.66
2023-11-19T15:35:47.469Z,95835.56
2023-11-19T15:41:54.118Z,95832.94
2023-11-19T15:44:55.679Z,95826.91
2023-11-19T15:47:57.362Z,95825.81
2023-11-19T15:50:59.006Z,95835.19
2023-11-19T15:54:01.818Z,95841.75
2023-11-19T15:57:03.739Z,95837.13
2023-11-19T16:00:06.493Z,95846.34
2023-11-19T16:03:08.523Z,95840.66
2023-11-19T16:06:11.617Z,95848.88
2023-11-19T16:09:16.166Z,95838.50
2023-11-19T16:12:17.821Z,95835.34
2023-11-19T16:15:36.706Z,95829.16
2023-11-19T16:18:39.625Z,95846.22
2023-11-19T16:21:41.529Z,95845.09
2023-11-19T16:24:43.170Z,95840.59
2023-11-19T16:27:45.179Z,95847.97
2023-11-19T16:30:46.902Z,95851.81
2023-11-19T16:33:48.490Z,95856.53
2023-11-19T16:36:50.956Z,95844.97
2023-11-19T16:39:52.993Z,95853.00
2023-11-19T16:42:55.890Z,95863.22
2023-11-19T16:45:58.117Z,95852.69
2023-11-19T16:49:00.763Z,95853.72
2023-11-19T16:52:05.341Z,95861.75
2023-11-19T16:55:12.942Z,95868.09
2023-11-19T16:58:14.652Z,95850.09
2023-11-19T17:01:16.337Z,95850.25
2023-11-19T17:04:18.697Z,95866.97
2023-11-19T17:07:20.336Z,95876.19
2023-11-19T17:10:22.451Z,95881.69
2023-11-19T17:13:24.467Z,95881.88
2023-11-19T17:16:26.110Z,95884.72
2023-11-19T17:19:27.823Z,95893.09
2023-11-19T17:22:30.328Z,95904.63
2023-11-19T17:25:32.331Z,95915.69
2023-11-19T17:28:36.776Z,95907.66
2023-11-19T17:31:38.617Z,95895.47
2023-11-19T17:34:40.217Z,95908.19
2023-11-19T17:37:42.666Z,95899.66
2023-11-19T17:40:44.483Z,95899.00
2023-11-19T17:43:46.416Z,95896.69
2023-11-19T17:46:48.421Z,95885.50
2023-11-19T17:49:50.534Z,95907.38
2023-11-19T17:52:52.657Z,95898.50
2023-11-19T17:55:55.915Z,95907.53
2023-11-19T17:58:58.268Z,95908.06
2023-11-19T18:02:03.179Z,95911.91
2023-11-19T18:05:06.658Z,95910.25
2023-11-19T18:08:11.449Z,95917.78
2023-11-19T18:11:14.942Z,95923.31
2023-11-19T18:14:16.794Z,95920.97
2023-11-19T18:17:19.269Z,95924.47
2023-11-19T18:20:21.472Z,95939.88
2023-11-19T18:23:23.259Z,95934.84
2023-11-19T18:26:44.444Z,95931.50
2023-11-19T18:29:49.356Z,95933.88
2023-11-19T18:32:51.601Z,95913.69
2023-11-19T18:35:53.288Z,95919.34
2023-11-19T18:38:55.330Z,95924.00
2023-11-19T18:41:57.036Z,95917.53
2023-11-19T18:44:59.070Z,95930.88
2023-11-19T18:48:01.849Z,95933.03
2023-11-19T18:51:04.011Z,95930.56
2023-11-19T18:54:05.808Z,95926.38
2023-11-19T18:57:07.539Z,95924.88
2023-11-19T19:00:11.341Z,95922.41
2023-11-19T19:03:16.377Z,95928.06
2023-11-19T19:06:18.530Z,95927.22
2023-11-19T19:09:20.253Z,95932.09
2023-11-19T19:12:22.180Z,95933.25
2023-11-19T19:15:26.854Z,95940.44
2023-11-19T19:18:28.791Z,95937.75
2023-11-19T19:21:32.366Z,95933.94
2023-11-19T19:24:35.087Z,95934.09
2023-11-19T19:27:37.155Z,95937.91
2023-11-19T19:30:39.092Z,95939.94
2023-11-19T19:33:40.690Z,95933.59
2023-11-19T19:36:42.722Z,95932.94
2023-11-19T19:39:44.345Z,95931.94
2023-11-19T19:42:45.978Z,95932.56
2023-11-19T19:45:47.989Z,95929.91
2023-11-19T19:48:51.759Z,95924.75
2023-11-19T19:51:53.531Z,95929.91
2023-11-19T19:54:57.127Z,95934.25
2023-11-19T19:57:59.196Z,95934.94
2023-11-19T20:01:02.146Z,95933.09
2023-11-19T20:04:04.523Z,95932.41
2023-11-19T20:07:07.518Z,95936.91
2023-11-19T20:10:13.631Z,95938.59
2023-11-19T20:13:16.002Z,95942.44
2023-11-19T20:16:18.592Z,95945.94
2023-11-19T20:19:20.278Z,95953.13
2023-11-19T20:22:21.856Z,95958.81
2023-11-19T20:25:23.458Z,95951.78
2023-11-19T20:28:25.600Z,95956.47
2023-11-19T20:31:27.201Z,95970.81
2023-11-19T20:34:29.864Z,95967.50
2023-11-19T20:37:32.776Z,95962.63
2023-11-19T20:40:34.858Z,95969.81
2023-11-19T20:43:36.687Z,95983.16
2023-11-19T20:46:38.759Z,95979.50
2023-11-19T20:49:40.877Z,95972.31
2023-11-19T20:52:42.582Z,95980.69
2023-11-19T20:55:46.513Z,95984.50
2023-11-19T20:58:48.106Z,95989.00
2023-11-19T21:01:49.835Z,95991.00
2023-11-19T21:04:51.894Z,95981.16
2023-11-19T21:07:54.027Z,95991.00
2023-11-19T21:10:56.128Z,95973.47
2023-11-19T21:13:57.799Z,95977.81
2023-11-19T21:17:00.303Z,95989.16
2023-11-19T21:20:02.462Z,95988.34
2023-11-19T21:23:04.120Z,95985.50
2023-11-19T21:26:06.618Z,95992.53
2023-11-19T21:29:08.364Z,95987.34
2023-11-19T21:32:10.482Z,95984.47
2023-11-19T21:35:13.339Z,96004.34
2023-11-19T21:38:15.202Z,95993.19
2023-11-19T21:41:16.881Z,95994.69
2023-11-19T21:44:18.584Z,95992.00
2023-11-19T21:47:20.689Z,95989.34
2023-11-19T21:50:22.704Z,96011.22
2023-11-19T21:53:25.524Z,96013.91
2023-11-19T21:56:27.097Z,96005.88
2023-11-19T21:59:28.738Z,96006.06
2023-11-19T22:02:30.847Z,96006.22
2023-11-19T22:05:32.509Z,96009.03
2023-11-19T22:08:34.561Z,96007.41
2023-11-19T22:11:36.208Z,96004.72
2023-11-19T22:14:38.257Z,96010.22
2023-11-19T22:17:40.327Z,96008.38
2023-11-19T22:20:42.871Z,96005.31
2023-11-19T22:23:44.685Z,95997.97
2023-11-19T22:26:46.733Z,96004.97
2023-11-19T22:29:48.396Z,96009.34
2023-11-19T22:32:50.496Z,96010.31
2023-11-19T22:35:52.552Z,96003.16
2023-11-19T22:38:55.257Z,95994.31
2023-11-19T22:41:57.402Z,95983.13
2023-11-19T22:45:00.309Z,95991.78
2023-11-19T22:48:02.118Z,96000.00
2023-11-19T22:51:05.114Z,96012.31
2023-11-19T22:54:06.855Z,96005.16
2023-11-19T22:57:09.066Z,95992.63
2023-11-19T23:00:19.511Z,95984.47
2023-11-19T23:03:22.413Z,95989.13
2023-11-19T23:06:24.098Z,95994.47
2023-11-19T23:09:26.646Z,96002.81
2023-11-19T23:12:28.790Z,96008.84
2023-11-19T23:15:31.414Z,96027.19
2023-11-19T23:18:33.475Z,96017.66
2023-11-19T23:21:40.936Z,96034.69
2023-11-19T23:24:43.220Z,96044.56
2023-11-19T23:27:44.882Z,96048.78
2023-11-19T23:30:46.660Z,96051.44
2023-11-19T23:33:48.743Z,96050.72
2023-11-19T23:36:50.934Z,96056.41
2023-11-19T23:39:53.712Z,96038.03
2023-11-19T23:42:55.969Z,96022.50
2023-11-19T23:45:58.502Z,96025.69
2023-11-19T23:49:01.493Z,96027.31
2023-11-19T23:52:05.935Z,96025.97
2023-11-19T23:55:08.323Z,96026.78
2023-11-19T23:58:10.357Z,96026.44
